createdAt,value
2019-06-26T00:01:46.614Z,23.00
2019-06-26T00:04:17.646Z,23.10
2019-06-26T00:06:57.391Z,23.20
2019-06-26T00:09:31.015Z,23.20
2019-06-26T00:12:01.957Z,23.20
2019-06-26T00:14:32.981Z,23.20
2019-06-26T00:17:05.736Z,23.10
2019-06-26T00:19:36.907Z,23.10
2019-06-26T00:22:07.835Z,23.00
2019-06-26T00:24:38.836Z,22.90
2019-06-26T00:27:09.809Z,22.90
2019-06-26T00:29:41.059Z,22.80
2019-06-26T00:32:12.052Z,22.80
2019-06-26T00:34:43.021Z,22.70
2019-06-26T00:37:13.976Z,22.80
2019-06-26T00:39:44.959Z,22.80
2019-06-26T00:42:16.163Z,22.80
2019-06-26T00:44:47.383Z,22.90
2019-06-26T00:47:18.344Z,23.00
2019-06-26T00:49:49.329Z,23.10
2019-06-26T00:52:20.371Z,23.10
2019-06-26T00:54:51.619Z,23.00
2019-06-26T00:57:22.603Z,22.90
2019-06-26T00:59:53.568Z,22.70
2019-06-26T01:02:24.562Z,22.50
2019-06-26T01:04:57.176Z,22.50
2019-06-26T01:07:28.205Z,22.30
2019-06-26T01:09:59.294Z,22.10
2019-06-26T01:12:30.245Z,22.10
2019-06-26T01:15:01.209Z,21.90
2019-06-26T01:17:32.774Z,21.70
2019-06-26T01:20:11.629Z,21.60
2019-06-26T01:22:44.707Z,21.20
2019-06-26T01:29:34.201Z,21.10
2019-06-26T01:32:05.279Z,21.00
2019-06-26T01:34:36.299Z,21.00
2019-06-26T01:37:07.529Z,21.00
2019-06-26T01:39:38.531Z,21.00
2019-06-26T01:42:09.548Z,21.10
2019-06-26T01:44:40.539Z,21.30
2019-06-26T01:47:11.489Z,21.30
2019-06-26T01:49:42.421Z,21.50
2019-06-26T01:52:13.411Z,21.70
2019-06-26T01:54:44.632Z,21.80
2019-06-26T01:57:15.603Z,21.90
2019-06-26T01:59:46.587Z,22.30
2019-06-26T02:02:17.819Z,22.30
2019-06-26T02:04:48.767Z,22.30
2019-06-26T02:07:19.740Z,22.30
2019-06-26T02:09:50.720Z,22.40
2019-06-26T02:12:22.639Z,22.50
2019-06-26T02:14:56.310Z,22.50
2019-06-26T02:17:27.307Z,22.70
2019-06-26T02:19:58.291Z,22.70
2019-06-26T02:22:29.283Z,22.80
2019-06-26T02:25:00.242Z,22.80
2019-06-26T02:27:31.273Z,22.90
2019-06-26T02:30:02.270Z,23.00
2019-06-26T02:32:33.547Z,22.80
2019-06-26T02:35:09.712Z,22.80
2019-06-26T02:37:40.381Z,22.70
2019-06-26T02:40:12.177Z,22.50
2019-06-26T02:42:43.182Z,22.30
2019-06-26T02:45:15.431Z,22.30
2019-06-26T02:47:47.422Z,22.20
2019-06-26T02:50:25.945Z,22.20
2019-06-26T02:52:56.935Z,22.20
2019-06-26T02:55:27.913Z,22.20
2019-06-26T02:57:59.986Z,22.20
2019-06-26T03:00:31.099Z,22.30
2019-06-26T03:03:02.113Z,22.20
2019-06-26T03:05:33.102Z,22.20
2019-06-26T03:08:04.209Z,22.10
2019-06-26T03:10:35.214Z,22.10
2019-06-26T03:13:06.392Z,22.20
2019-06-26T03:15:37.332Z,22.30
2019-06-26T03:18:08.388Z,22.40
2019-06-26T03:20:44.044Z,22.40
2019-06-26T03:23:15.022Z,22.50
2019-06-26T03:25:46.343Z,22.50
2019-06-26T03:28:34.773Z,22.70
2019-06-26T03:31:05.946Z,22.70
2019-06-26T03:33:37.142Z,22.70
2019-06-26T03:36:08.131Z,22.60
2019-06-26T03:38:39.123Z,22.60
2019-06-26T03:41:10.358Z,22.60
2019-06-26T03:43:41.933Z,22.60
2019-06-26T03:46:13.694Z,22.50
2019-06-26T03:48:44.747Z,22.40
2019-06-26T03:51:16.019Z,22.50
2019-06-26T03:53:47.029Z,22.60
2019-06-26T03:56:18.001Z,22.60
2019-06-26T03:58:48.968Z,22.60
2019-06-26T04:01:20.147Z,22.60
2019-06-26T04:03:51.286Z,22.70
2019-06-26T04:06:22.328Z,22.70
2019-06-26T04:08:54.618Z,22.60
2019-06-26T04:11:26.818Z,22.60
2019-06-26T04:14:09.770Z,22.60
2019-06-26T04:16:42.693Z,22.60
2019-06-26T04:19:13.862Z,22.60
2019-06-26T04:21:44.833Z,22.60
2019-06-26T04:24:16.183Z,22.50
2019-06-26T04:27:00.087Z,22.50
2019-06-26T04:29:38.775Z,22.50
2019-06-26T04:32:10.208Z,22.40
2019-06-26T04:34:41.193Z,22.50
2019-06-26T04:37:12.224Z,22.50
2019-06-26T04:39:43.280Z,22.60
2019-06-26T04:42:14.203Z,22.60
2019-06-26T04:44:45.340Z,22.60
2019-06-26T04:47:16.338Z,22.70
2019-06-26T04:49:47.304Z,22.70
2019-06-26T04:52:18.257Z,22.80
2019-06-26T04:54:49.254Z,22.90
2019-06-26T04:57:20.214Z,23.00
2019-06-26T04:59:51.305Z,23.10
2019-06-26T05:02:22.274Z,23.20
2019-06-26T05:04:53.249Z,23.50
2019-06-26T05:07:24.491Z,23.60
2019-06-26T05:09:55.482Z,24.00
2019-06-26T05:12:26.434Z,24.00
2019-06-26T05:14:57.386Z,24.20
2019-06-26T05:17:28.309Z,24.40
2019-06-26T05:19:59.270Z,24.70
2019-06-26T05:22:30.500Z,24.80
2019-06-26T05:25:01.454Z,25.00
2019-06-26T05:27:34.417Z,25.20
2019-06-26T05:30:09.875Z,25.30
2019-06-26T05:32:40.898Z,25.40
2019-06-26T05:35:12.184Z,25.60
2019-06-26T05:37:43.184Z,25.80
2019-06-26T05:40:15.264Z,26.00
2019-06-26T05:42:46.237Z,26.20
2019-06-26T05:45:18.741Z,26.20
2019-06-26T05:47:49.684Z,26.30
2019-06-26T05:50:21.255Z,26.50
2019-06-26T05:52:52.230Z,26.60
2019-06-26T05:55:23.524Z,26.70
2019-06-26T05:57:54.778Z,26.80
2019-06-26T06:00:25.907Z,27.00
2019-06-26T06:02:57.874Z,27.10
2019-06-26T06:05:28.608Z,27.30
2019-06-26T06:07:59.952Z,27.30
2019-06-26T06:10:30.553Z,27.30
2019-06-26T06:13:01.251Z,27.30
2019-06-26T06:15:32.251Z,27.40
2019-06-26T06:18:03.123Z,27.60
2019-06-26T06:20:38.375Z,27.60
2019-06-26T06:23:09.414Z,27.80
2019-06-26T06:25:40.079Z,27.90
2019-06-26T06:28:10.732Z,27.80
2019-06-26T06:30:41.669Z,28.00
2019-06-26T06:33:12.341Z,28.00
2019-06-26T06:35:43.422Z,28.20
2019-06-26T06:38:14.126Z,28.40
2019-06-26T06:40:44.799Z,28.50
2019-06-26T06:43:15.983Z,28.60
2019-06-26T06:45:46.785Z,28.90
2019-06-26T06:48:19.359Z,28.90
2019-06-26T06:50:50.057Z,29.00
2019-06-26T06:53:20.782Z,29.00
2019-06-26T06:55:51.453Z,29.20
2019-06-26T06:58:22.232Z,29.40
2019-06-26T07:00:53.173Z,29.70
2019-06-26T07:03:24.082Z,29.60
2019-06-26T07:05:55.222Z,29.80
2019-06-26T07:08:26.276Z,29.80
2019-06-26T07:10:57.104Z,29.70
2019-06-26T07:13:28.152Z,29.80
2019-06-26T07:15:59.281Z,30.00
2019-06-26T07:18:29.917Z,30.10
2019-06-26T07:21:00.779Z,30.10
2019-06-26T07:23:31.773Z,30.10
2019-06-26T07:26:02.838Z,30.10
2019-06-26T07:28:33.581Z,30.10
2019-06-26T07:31:04.292Z,30.30
2019-06-26T07:33:35.270Z,30.30
2019-06-26T07:36:06.061Z,30.40
2019-06-26T07:38:36.900Z,30.40
2019-06-26T07:41:07.793Z,30.50
2019-06-26T07:43:38.687Z,30.50
2019-06-26T07:46:09.611Z,30.60
2019-06-26T07:48:40.614Z,30.60
2019-06-26T07:51:11.279Z,30.80
2019-06-26T07:53:42.201Z,30.90
2019-06-26T07:56:13.130Z,31.00
2019-06-26T07:58:43.826Z,31.00
2019-06-26T08:01:14.560Z,31.00
2019-06-26T08:03:45.539Z,31.00
2019-06-26T08:06:16.222Z,31.10
2019-06-26T08:08:46.924Z,31.00
2019-06-26T08:11:17.868Z,30.90
2019-06-26T08:13:48.631Z,30.60
2019-06-26T08:16:19.280Z,30.70
2019-06-26T08:18:50.019Z,30.60
2019-06-26T08:21:20.779Z,30.60
2019-06-26T08:23:51.962Z,30.60
2019-06-26T08:26:22.700Z,30.80
2019-06-26T08:28:53.488Z,30.70
2019-06-26T08:31:24.275Z,30.80
2019-06-26T08:33:55.217Z,30.80
2019-06-26T08:36:26.205Z,30.90
2019-06-26T08:38:56.855Z,31.10
2019-06-26T08:41:27.769Z,31.10
2019-06-26T08:43:58.446Z,31.10
2019-06-26T08:46:29.375Z,31.10
2019-06-26T08:49:00.068Z,31.10
2019-06-26T08:51:30.749Z,31.30
2019-06-26T08:54:04.583Z,31.30
2019-06-26T08:56:33.782Z,31.30
2019-06-26T08:59:04.777Z,31.20
2019-06-26T09:01:35.536Z,31.20
2019-06-26T09:04:06.533Z,31.20
2019-06-26T09:06:37.515Z,31.20
2019-06-26T09:09:08.823Z,31.30
2019-06-26T09:11:39.579Z,31.20
2019-06-26T09:14:10.465Z,31.20
2019-06-26T09:16:41.138Z,31.20
2019-06-26T09:19:11.838Z,31.20
2019-06-26T09:21:42.534Z,31.20
2019-06-26T09:24:13.274Z,31.00
2019-06-26T09:26:43.942Z,31.10
2019-06-26T09:29:14.741Z,31.20
2019-06-26T09:31:45.447Z,31.20
2019-06-26T09:34:17.791Z,31.20
2019-06-26T09:36:49.136Z,31.00
2019-06-26T09:39:19.828Z,31.00
2019-06-26T09:41:50.519Z,31.10
2019-06-26T09:44:21.318Z,31.10
2019-06-26T09:46:52.052Z,31.20
2019-06-26T09:49:22.941Z,31.20
2019-06-26T09:51:53.688Z,31.10
2019-06-26T09:54:24.389Z,31.00
2019-06-26T09:56:55.073Z,30.90
2019-06-26T09:59:26.033Z,31.00
2019-06-26T10:01:56.670Z,31.00
2019-06-26T10:04:27.378Z,31.20
2019-06-26T10:06:58.122Z,31.20
2019-06-26T10:09:28.771Z,31.30
2019-06-26T10:11:59.701Z,31.40
2019-06-26T10:14:46.601Z,31.40
2019-06-26T10:19:33.226Z,31.60
2019-06-26T10:22:04.227Z,31.80
2019-06-26T10:24:34.928Z,31.70
2019-06-26T10:27:05.806Z,31.70
2019-06-26T10:29:36.458Z,31.90
2019-06-26T10:32:07.119Z,31.90
2019-06-26T10:34:37.779Z,31.80
2019-06-26T10:37:08.489Z,31.80
2019-06-26T10:39:39.178Z,31.90
2019-06-26T10:42:09.847Z,31.80
2019-06-26T10:44:40.582Z,31.80
2019-06-26T10:47:11.351Z,31.90
2019-06-26T10:49:41.989Z,32.30
2019-06-26T10:52:13.040Z,32.10
2019-06-26T10:54:44.614Z,32.10
2019-06-26T10:57:15.665Z,32.10
2019-06-26T10:59:46.338Z,32.30
2019-06-26T11:02:17.200Z,31.90
2019-06-26T11:04:47.865Z,32.00
2019-06-26T11:07:18.634Z,32.00
2019-06-26T11:09:49.366Z,32.10
2019-06-26T11:12:20.060Z,32.10
2019-06-26T11:14:50.804Z,32.30
2019-06-26T11:17:21.944Z,32.30
2019-06-26T11:19:55.371Z,32.20
2019-06-26T11:22:25.133Z,32.10
2019-06-26T11:24:55.787Z,32.10
2019-06-26T11:27:26.500Z,32.30
2019-06-26T11:29:57.188Z,32.30
2019-06-26T11:32:27.861Z,32.40
2019-06-26T11:34:58.515Z,32.40
2019-06-26T11:37:29.227Z,32.30
2019-06-26T11:40:00.227Z,32.30
2019-06-26T11:42:32.823Z,32.10
2019-06-26T11:45:05.032Z,32.10
2019-06-26T11:47:35.868Z,31.70
2019-06-26T11:50:12.812Z,31.70
2019-06-26T11:52:43.567Z,31.70
2019-06-26T11:55:15.340Z,31.50
2019-06-26T11:57:47.687Z,31.50
2019-06-26T12:00:24.173Z,31.30
2019-06-26T12:02:54.882Z,31.40
2019-06-26T12:05:25.921Z,31.30
2019-06-26T12:07:56.612Z,31.50
2019-06-26T12:10:27.438Z,31.60
2019-06-26T12:12:58.408Z,31.80
2019-06-26T12:15:30.356Z,32.00
2019-06-26T12:18:01.366Z,32.10
2019-06-26T12:20:32.006Z,32.10
2019-06-26T12:23:02.755Z,32.00
2019-06-26T12:25:33.468Z,32.10
2019-06-26T12:28:04.458Z,32.00
2019-06-26T12:30:35.125Z,31.90
2019-06-26T12:33:05.858Z,32.00
2019-06-26T12:35:36.503Z,32.00
2019-06-26T12:38:07.195Z,32.00
2019-06-26T12:40:37.901Z,32.00
2019-06-26T12:43:08.606Z,32.00
2019-06-26T12:45:39.439Z,32.00
2019-06-26T12:48:10.234Z,32.00
2019-06-26T12:50:42.857Z,31.90
2019-06-26T12:53:13.784Z,31.90
2019-06-26T12:55:44.521Z,31.80
2019-06-26T12:58:19.651Z,31.70
2019-06-26T13:00:47.651Z,31.80
2019-06-26T13:03:18.424Z,31.90
2019-06-26T13:05:49.098Z,31.80
2019-06-26T13:08:19.791Z,31.90
2019-06-26T13:10:50.755Z,31.80
2019-06-26T13:13:21.463Z,31.80
2019-06-26T13:15:52.188Z,31.70
2019-06-26T13:18:22.865Z,31.80
2019-06-26T13:20:56.429Z,31.80
2019-06-26T13:23:27.354Z,31.80
2019-06-26T13:25:58.046Z,31.70
2019-06-26T13:28:28.745Z,31.70
2019-06-26T13:30:59.451Z,31.70
2019-06-26T13:33:30.155Z,31.70
2019-06-26T13:36:00.905Z,31.80
2019-06-26T13:38:31.697Z,31.80
2019-06-26T13:41:02.682Z,31.80
2019-06-26T13:43:33.684Z,31.80
2019-06-26T13:46:04.663Z,31.70
2019-06-26T13:48:35.791Z,31.60
2019-06-26T13:51:09.844Z,31.70
2019-06-26T13:53:38.868Z,31.70
2019-06-26T13:56:09.538Z,31.70
2019-06-26T13:58:40.185Z,31.60
2019-06-26T14:01:10.866Z,31.60
2019-06-26T14:03:41.583Z,31.60
2019-06-26T14:06:12.319Z,31.70
2019-06-26T14:08:42.972Z,31.60
2019-06-26T14:11:13.682Z,31.60
2019-06-26T14:13:44.434Z,31.70
2019-06-26T14:16:15.208Z,31.60
2019-06-26T14:18:45.928Z,31.60
2019-06-26T14:21:25.528Z,31.60
2019-06-26T14:23:49.187Z,31.60
2019-06-26T14:26:19.960Z,31.60
2019-06-26T14:28:53.771Z,31.60
2019-06-26T14:31:23.015Z,31.60
2019-06-26T14:33:53.825Z,31.60
2019-06-26T14:36:24.808Z,31.60
2019-06-26T14:38:55.678Z,31.80
2019-06-26T14:41:26.698Z,31.90
2019-06-26T14:43:57.563Z,31.90
2019-06-26T14:46:28.220Z,31.80
2019-06-26T14:48:58.870Z,31.80
2019-06-26T14:51:43.419Z,31.80
2019-06-26T14:54:02.064Z,31.80
2019-06-26T14:56:32.816Z,31.90
2019-06-26T14:59:03.547Z,31.90
2019-06-26T15:01:34.778Z,31.90
2019-06-26T15:04:05.638Z,31.80
2019-06-26T15:06:36.329Z,31.80
2019-06-26T15:09:07.498Z,31.80
2019-06-26T15:11:38.356Z,31.80
2019-06-26T15:14:09.121Z,31.80
2019-06-26T15:16:39.777Z,31.90
2019-06-26T15:19:10.547Z,32.00
2019-06-26T15:21:54.167Z,32.10
2019-06-26T15:24:13.730Z,32.10
2019-06-26T15:26:44.410Z,32.20
2019-06-26T15:29:15.305Z,32.10
2019-06-26T15:31:46.088Z,32.10
2019-06-26T15:34:16.829Z,32.00
2019-06-26T15:36:47.582Z,31.80
2019-06-26T15:39:18.239Z,31.80
2019-06-26T15:41:48.915Z,31.70
2019-06-26T15:44:19.592Z,31.80
2019-06-26T15:46:50.252Z,31.80
2019-06-26T15:49:20.920Z,32.00
2019-06-26T15:51:51.572Z,32.00
2019-06-26T15:54:22.237Z,32.00
2019-06-26T15:56:52.969Z,31.90
2019-06-26T15:59:23.852Z,31.90
2019-06-26T16:01:54.695Z,31.90
2019-06-26T16:04:25.434Z,31.90
2019-06-26T16:06:56.179Z,31.90
2019-06-26T16:09:26.866Z,31.90
2019-06-26T16:11:58.920Z,31.90
2019-06-26T16:14:29.864Z,31.90
2019-06-26T16:17:07.969Z,31.90
2019-06-26T16:19:38.719Z,31.90
2019-06-26T16:22:09.391Z,31.80
2019-06-26T16:24:40.100Z,31.70
2019-06-26T16:27:10.804Z,31.70
2019-06-26T16:29:41.444Z,31.70
2019-06-26T16:32:12.126Z,31.80
2019-06-26T16:34:42.819Z,32.10
2019-06-26T16:37:13.506Z,32.10
2019-06-26T16:39:44.322Z,32.50
2019-06-26T16:42:15.000Z,32.70
2019-06-26T16:44:45.657Z,32.80
2019-06-26T16:47:16.361Z,33.00
2019-06-26T16:49:47.403Z,33.00
2019-06-26T16:52:18.055Z,33.00
2019-06-26T16:54:48.837Z,32.80
2019-06-26T16:57:19.724Z,32.30
2019-06-26T16:59:50.383Z,32.10
2019-06-26T17:02:21.069Z,31.80
2019-06-26T17:04:51.749Z,31.80
2019-06-26T17:07:22.446Z,31.80
2019-06-26T17:09:53.143Z,31.70
2019-06-26T17:12:23.910Z,31.70
2019-06-26T17:14:54.618Z,31.70
2019-06-26T17:17:25.304Z,31.70
2019-06-26T17:19:56.072Z,31.70
2019-06-26T17:22:26.836Z,31.70
2019-06-26T17:24:57.551Z,31.60
2019-06-26T17:27:28.208Z,31.60
2019-06-26T17:29:58.880Z,31.40
2019-06-26T17:32:29.773Z,31.30
2019-06-26T17:35:00.418Z,31.30
2019-06-26T17:37:31.084Z,31.20
2019-06-26T17:40:01.844Z,31.00
2019-06-26T17:42:32.639Z,30.70
2019-06-26T17:45:04.767Z,30.70
2019-06-26T17:47:35.721Z,30.50
2019-06-26T17:50:07.711Z,30.30
2019-06-26T17:52:38.833Z,30.30
2019-06-26T17:55:10.177Z,30.10
2019-06-26T17:57:40.879Z,29.90
2019-06-26T18:00:13.273Z,29.90
2019-06-26T18:02:44.050Z,29.70
2019-06-26T18:05:15.590Z,29.40
2019-06-26T18:07:46.274Z,29.10
2019-06-26T18:10:18.255Z,28.90
2019-06-26T18:12:48.945Z,28.60
2019-06-26T18:15:20.059Z,28.60
2019-06-26T18:17:50.880Z,28.30
2019-06-26T18:20:22.181Z,28.20
2019-06-26T18:23:06.528Z,28.00
2019-06-26T18:25:25.316Z,27.80
2019-06-26T18:27:56.455Z,27.70
2019-06-26T18:30:27.564Z,27.60
2019-06-26T18:32:58.647Z,27.60
2019-06-26T18:38:00.271Z,27.20
2019-06-26T18:40:31.320Z,27.20
2019-06-26T18:43:02.573Z,27.10
2019-06-26T18:45:33.677Z,27.00
2019-06-26T18:48:04.743Z,26.70
2019-06-26T18:50:36.130Z,26.60
2019-06-26T18:53:07.297Z,26.60
2019-06-26T18:55:38.269Z,26.70
2019-06-26T18:58:09.266Z,26.60
2019-06-26T19:00:40.254Z,26.60
2019-06-26T19:03:11.745Z,26.60
2019-06-26T19:05:42.816Z,26.40
2019-06-26T19:08:13.793Z,26.20
2019-06-26T19:10:44.889Z,26.20
2019-06-26T19:13:19.948Z,26.10
2019-06-26T19:15:48.819Z,25.60
2019-06-26T19:18:20.067Z,25.60
2019-06-26T19:20:51.160Z,25.60
2019-06-26T19:23:22.387Z,25.60
2019-06-26T19:25:53.497Z,25.60
2019-06-26T19:28:25.017Z,25.60
2019-06-26T19:30:56.508Z,25.40
2019-06-26T19:33:27.767Z,25.40
2019-06-26T19:35:59.001Z,25.20
2019-06-26T19:38:30.310Z,25.20
2019-06-26T19:41:01.653Z,25.10
2019-06-26T19:43:32.700Z,25.10
2019-06-26T19:46:03.862Z,24.90
2019-06-26T19:48:35.011Z,24.80
2019-06-26T19:51:06.108Z,24.80
2019-06-26T19:53:37.135Z,24.80
2019-06-26T19:56:08.187Z,24.80
2019-06-26T19:58:39.279Z,24.80
2019-06-26T20:01:10.473Z,24.80
2019-06-26T20:03:41.475Z,24.70
2019-06-26T20:06:12.611Z,24.70
2019-06-26T20:08:54.518Z,24.70
2019-06-26T20:11:17.165Z,24.70
2019-06-26T20:13:48.601Z,24.60
2019-06-26T20:16:19.806Z,24.60
2019-06-26T20:18:50.927Z,24.60
2019-06-26T20:21:23.031Z,24.60
2019-06-26T20:23:55.771Z,24.50
2019-06-26T20:26:27.106Z,24.40
2019-06-26T20:28:58.340Z,24.40
2019-06-26T20:31:29.304Z,24.40
2019-06-26T20:34:00.603Z,24.40
2019-06-26T20:36:31.887Z,24.30
2019-06-26T20:39:03.225Z,24.30
2019-06-26T20:41:34.305Z,24.20
2019-06-26T20:44:05.611Z,24.20
2019-06-26T20:46:36.854Z,24.20
2019-06-26T20:49:07.873Z,24.20
2019-06-26T20:51:39.201Z,24.20
2019-06-26T20:54:10.157Z,24.20
2019-06-26T20:56:41.563Z,24.20
2019-06-26T20:59:12.536Z,24.10
2019-06-26T21:01:43.810Z,24.10
2019-06-26T21:04:14.819Z,24.00
2019-06-26T21:06:46.107Z,23.90
2019-06-26T21:09:17.381Z,23.90
2019-06-26T21:11:48.652Z,24.00
2019-06-26T21:14:19.961Z,24.00
2019-06-26T21:16:50.935Z,23.90
2019-06-26T21:19:22.400Z,23.90
2019-06-26T21:21:57.734Z,23.80
2019-06-26T21:24:28.968Z,23.80
2019-06-26T21:27:00.198Z,23.70
2019-06-26T21:29:31.195Z,23.70
2019-06-26T21:32:02.172Z,23.70
2019-06-26T21:34:33.135Z,23.80
2019-06-26T21:37:04.421Z,23.80
2019-06-26T21:39:35.709Z,23.80
2019-06-26T21:42:06.942Z,23.80
2019-06-26T21:44:38.162Z,23.80
2019-06-26T21:47:09.417Z,23.80
2019-06-26T21:49:40.638Z,23.70
2019-06-26T21:52:11.579Z,23.60
2019-06-26T21:54:42.883Z,23.50
2019-06-26T21:57:13.871Z,23.50
2019-06-26T21:59:45.103Z,23.50
2019-06-26T22:02:16.442Z,23.50
2019-06-26T22:04:47.445Z,23.50
2019-06-26T22:07:18.761Z,23.60
2019-06-26T22:09:50.048Z,23.60
2019-06-26T22:12:21.170Z,23.50
2019-06-26T22:14:52.166Z,23.50
2019-06-26T22:17:23.393Z,23.50
2019-06-26T22:19:54.713Z,23.40
2019-06-26T22:22:25.694Z,23.50
2019-06-26T22:24:56.751Z,23.50
2019-06-26T22:27:27.711Z,23.50
2019-06-26T22:29:58.756Z,23.50
2019-06-26T22:32:29.756Z,23.50
2019-06-26T22:35:00.745Z,23.50
2019-06-26T22:37:31.741Z,23.50
2019-06-26T22:40:02.997Z,23.60
2019-06-26T22:42:34.014Z,23.60
2019-06-26T22:45:06.515Z,23.70
2019-06-26T22:47:37.507Z,23.60
2019-06-26T22:50:09.728Z,23.60
2019-06-26T22:52:40.721Z,23.60
2019-06-26T22:55:12.182Z,23.50
2019-06-26T22:57:43.150Z,23.50
2019-06-26T23:00:16.785Z,23.50
2019-06-26T23:02:48.191Z,23.50
2019-06-26T23:05:19.187Z,23.50
2019-06-26T23:07:50.202Z,23.50
2019-06-26T23:10:21.343Z,23.30
2019-06-26T23:12:52.339Z,23.30
2019-06-26T23:15:23.482Z,23.30
2019-06-26T23:17:55.281Z,23.10
2019-06-26T23:20:26.275Z,23.10
2019-06-26T23:22:57.633Z,23.00
2019-06-26T23:25:28.729Z,23.00
2019-06-26T23:27:59.794Z,23.00
2019-06-26T23:30:30.829Z,23.00
2019-06-26T23:33:01.858Z,23.10
2019-06-26T23:35:32.838Z,23.10
2019-06-26T23:38:04.270Z,23.20
2019-06-26T23:40:35.456Z,23.20
2019-06-26T23:43:06.461Z,23.20
2019-06-26T23:45:37.542Z,23.10
2019-06-26T23:48:08.532Z,23.10
2019-06-26T23:50:39.611Z,23.10
2019-06-26T23:53:10.941Z,23.10
2019-06-26T23:55:41.941Z,23.00
2019-06-26T23:58:13.175Z,22.90
